Time;durP1;ratioP1;P1;durP2;ratioP2;P2;SDS_P1;SDS_P2;PMS_P1;PMS_P2;Temp;Humidity;BMP_temperature;BMP_pressure;BME280_temperature;BME280_humidity;BME280_pressure;Samples;Min_cycle;Max_cycle;Signal;HPM_P1;HPM_P2
2022/08/03 00:01:04;;;;;;;5.43;3.90;;;23.00;98.30;;;;;;4971865;28;20195;-76
2022/08/03 00:03:31;;;;;;;6.63;4.10;;;23.00;98.60;;;;;;4951293;28;20603;-75
2022/08/03 00:05:57;;;;;;;4.43;3.97;;;23.00;97.90;;;;;;4970137;28;20957;-76
2022/08/03 00:08:23;;;;;;;9.18;4.40;;;22.80;98.10;;;;;;4961494;28;20606;-76
2022/08/03 00:10:50;;;;;;;4.75;3.70;;;22.70;98.20;;;;;;4934878;29;20273;-76
2022/08/03 00:13:18;;;;;;;4.82;4.05;;;22.70;98.30;;;;;;4965685;28;20245;-76
2022/08/03 00:15:44;;;;;;;5.73;3.83;;;22.80;98.50;;;;;;4970338;28;20209;-76
2022/08/03 00:18:10;;;;;;;4.95;4.20;;;22.80;98.90;;;;;;4954405;28;20253;-76
2022/08/03 00:20:37;;;;;;;7.30;4.30;;;22.80;98.40;;;;;;4956424;28;20210;-76
2022/08/03 00:23:05;;;;;;;6.50;4.03;;;22.80;97.80;;;;;;4970625;28;20961;-76
2022/08/03 00:25:34;;;;;;;5.20;4.30;;;22.70;97.60;;;;;;4971204;28;20670;-76
2022/08/03 00:28:02;;;;;;;7.82;4.30;;;22.70;97.80;;;;;;4953251;28;20191;-76
2022/08/03 00:30:28;;;;;;;4.93;3.97;;;22.80;97.40;;;;;;4961766;28;20635;-76
2022/08/03 00:32:54;;;;;;;6.53;4.18;;;22.80;97.20;;;;;;4953312;28;20194;-76
2022/08/03 00:35:21;;;;;;;5.07;4.10;;;22.80;97.40;;;;;;4968955;28;20234;-75
2022/08/03 00:37:48;;;;;;;6.63;4.35;;;22.80;97.60;;;;;;4969294;28;20278;-76
2022/08/03 00:40:16;;;;;;;6.93;4.47;;;22.80;97.30;;;;;;4963869;28;20198;-76
2022/08/03 00:42:57;;;;;;;5.63;4.30;;;22.80;97.00;;;;;;4955723;28;20729;-76
2022/08/03 00:45:51;;;;;;;5.40;4.47;;;22.90;96.90;;;;;;4968885;28;20240;-76
2022/08/03 00:48:17;;;;;;;5.13;4.13;;;22.90;96.90;;;;;;4950527;28;20293;-76
2022/08/03 00:50:43;;;;;;;5.53;4.75;;;22.90;97.10;;;;;;4969182;28;20607;-76
2022/08/03 00:53:12;;;;;;;5.27;4.33;;;23.00;97.30;;;;;;4969137;28;20646;-76
2022/08/03 00:55:39;;;;;;;6.47;4.67;;;23.00;97.50;;;;;;4971459;28;20190;-76
2022/08/03 00:58:07;;;;;;;5.65;4.22;;;23.00;97.10;;;;;;4969147;28;20206;-76
2022/08/03 01:00:37;;;;;;;5.40;4.37;;;23.00;96.90;;;;;;4968871;28;20647;-76
2022/08/03 01:03:06;;;;;;;4.57;3.93;;;23.00;96.70;;;;;;4968985;28;20654;-76
2022/08/03 01:05:51;;;;;;;4.55;4.13;;;23.00;97.00;;;;;;4970663;28;20236;-76
2022/08/03 01:08:52;;;;;;;4.97;4.47;;;23.00;96.60;;;;;;4952030;28;20298;-76
2022/08/03 01:11:48;;;;;;;4.75;4.32;;;23.00;96.10;;;;;;4952900;28;20251;-76
2022/08/03 01:14:30;;;;;;;7.05;4.07;;;23.00;95.80;;;;;;4952910;28;20190;-76
2022/08/03 01:17:26;;;;;;;5.70;3.73;;;23.00;96.20;;;;;;4969926;28;20217;-76
2022/08/03 01:20:06;;;;;;;4.77;4.27;;;23.00;95.80;;;;;;4953387;28;20281;-76
2022/08/03 01:23:17;;;;;;;7.32;4.40;;;23.00;95.50;;;;;;4970700;28;20190;-75
2022/08/03 01:26:32;;;;;;;5.30;4.37;;;23.00;95.20;;;;;;4965619;28;20258;-76
2022/08/03 01:29:46;;;;;;;6.83;3.90;;;23.00;95.60;;;;;;4952716;28;20198;-76
2022/08/03 01:32:30;;;;;;;6.45;4.35;;;23.00;95.10;;;;;;4958242;28;20209;-76
2022/08/03 01:35:11;;;;;;;9.45;3.85;;;22.90;95.30;;;;;;4954379;28;20190;-76
2022/08/03 01:37:53;;;;;;;5.10;4.00;;;22.90;95.60;;;;;;4968847;28;20557;-76
2022/08/03 01:40:23;;;;;;;5.87;4.30;;;22.90;95.90;;;;;;4952707;28;20182;-76
2022/08/03 01:42:53;;;;;;;6.97;3.90;;;23.00;95.90;;;;;;4967915;28;20547;-76
2022/08/03 01:45:22;;;;;;;4.27;3.87;;;22.90;95.90;;;;;;4961457;28;20210;-76
2022/08/03 01:47:50;;;;;;;4.50;4.10;;;22.80;96.10;;;;;;4968492;28;20201;-76
2022/08/03 01:50:27;;;;;;;4.90;4.05;;;22.80;95.90;;;;;;4952341;28;20194;-76
2022/08/03 01:52:55;;;;;;;4.03;3.60;;;22.70;96.00;;;;;;4967465;28;20694;-76
2022/08/03 01:55:27;;;;;;;5.07;3.95;;;22.70;96.40;;;;;;4952069;28;20198;-76
2022/08/03 01:57:55;;;;;;;4.83;4.00;;;22.60;96.40;;;;;;4957836;28;20978;-76
2022/08/03 02:00:24;;;;;;;5.82;3.75;;;22.60;96.70;;;;;;4968348;28;20190;-76
2022/08/03 02:02:55;;;;;;;6.17;3.90;;;22.70;97.00;;;;;;4966857;28;20198;-76
2022/08/03 02:05:22;;;;;;;6.55;4.68;;;22.70;97.00;;;;;;4968412;28;20276;-76
2022/08/03 02:07:50;;;;;;;5.97;4.30;;;22.60;97.10;;;;;;4951325;28;20197;-76
2022/08/03 02:10:20;;;;;;;6.63;3.80;;;22.50;97.30;;;;;;4961490;28;20261;-76
2022/08/03 02:12:49;;;;;;;5.63;4.27;;;22.50;97.60;;;;;;4948021;29;20290;-76
2022/08/03 02:15:18;;;;;;;6.93;4.30;;;22.50;97.70;;;;;;4966737;28;20194;-76
2022/08/03 02:17:47;;;;;;;5.43;4.10;;;22.40;97.80;;;;;;4957483;28;20195;-76
2022/08/03 02:20:15;;;;;;;7.22;4.28;;;22.40;98.10;;;;;;4948876;28;20195;-76
2022/08/03 02:22:45;;;;;;;6.88;4.07;;;22.30;98.10;;;;;;4966900;28;20229;-76
2022/08/03 02:25:14;;;;;;;5.82;4.00;;;22.30;98.20;;;;;;4968206;28;20269;-76
2022/08/03 02:27:52;;;;;;;5.50;4.10;;;22.30;98.20;;;;;;4961098;28;20666;-76
2022/08/03 02:30:20;;;;;;;5.13;3.97;;;22.20;98.00;;;;;;4951715;28;20182;-76
2022/08/03 02:32:56;;;;;;;6.25;4.18;;;22.20;97.90;;;;;;4941991;29;20198;-76
2022/08/03 02:35:27;;;;;;;5.93;4.30;;;22.20;98.20;;;;;;4957859;28;20202;-76
2022/08/03 02:38:01;;;;;;;6.43;4.20;;;22.20;98.20;;;;;;4983587;28;20524;-76
2022/08/03 02:40:31;;;;;;;4.95;4.15;;;22.20;98.40;;;;;;4967030;28;20297;-76
2022/08/03 02:43:07;;;;;;;8.07;4.20;;;22.20;98.40;;;;;;4962217;28;20191;-76
2022/08/03 02:45:42;;;;;;;5.03;3.85;;;22.20;98.40;;;;;;4951108;28;20214;-76
2022/08/03 02:48:11;;;;;;;4.57;3.67;;;22.20;98.20;;;;;;4968342;28;20197;-76
2022/08/03 02:50:38;;;;;;;5.10;4.20;;;22.30;98.30;;;;;;4967967;28;20182;-76
2022/08/03 02:53:06;;;;;;;6.97;4.15;;;22.30;97.80;;;;;;4948628;28;20595;-76
2022/08/03 02:55:35;;;;;;;6.18;3.90;;;22.30;96.80;;;;;;4968720;28;20197;-76
2022/08/03 02:58:03;;;;;;;5.05;3.60;;;22.20;96.40;;;;;;4967553;28;20194;-76
2022/08/03 03:00:32;;;;;;;6.65;3.67;;;22.20;96.20;;;;;;4966736;28;20278;-76
2022/08/03 03:03:01;;;;;;;4.38;3.50;;;22.30;96.00;;;;;;4965839;28;20827;-76
2022/08/03 03:05:29;;;;;;;5.88;3.78;;;22.30;95.80;;;;;;4957503;28;20249;-76
2022/08/03 03:07:57;;;;;;;4.60;3.55;;;22.30;95.80;;;;;;4968248;28;20200;-75
2022/08/03 03:10:25;;;;;;;6.07;3.50;;;22.30;96.10;;;;;;4957896;28;20194;-76
2022/08/03 03:12:56;;;;;;;5.93;3.70;;;22.30;96.00;;;;;;4965191;28;20209;-76
2022/08/03 03:15:29;;;;;;;4.43;3.47;;;22.30;96.30;;;;;;4958946;28;20712;-76
2022/08/03 03:17:59;;;;;;;4.72;3.95;;;22.30;96.80;;;;;;4947632;28;20200;-76
2022/08/03 03:20:28;;;;;;;5.13;3.90;;;22.30;97.20;;;;;;4966691;28;20257;-76
2022/08/03 03:22:55;;;;;;;7.97;4.13;;;22.40;97.60;;;;;;4967865;28;20713;-76
2022/08/03 03:25:22;;;;;;;5.07;3.80;;;22.40;97.70;;;;;;4968757;28;20558;-76
2022/08/03 03:27:49;;;;;;;9.02;3.92;;;22.40;97.90;;;;;;4954329;28;20189;-76
2022/08/03 03:30:16;;;;;;;5.23;4.07;;;22.50;98.20;;;;;;4964293;28;20197;-76
2022/08/03 03:32:42;;;;;;;7.18;4.05;;;22.50;98.50;;;;;;4966522;28;20194;-76
2022/08/03 03:35:14;;;;;;;11.00;4.10;;;22.40;98.30;;;;;;4976061;28;20201;-76
2022/08/03 03:37:40;;;;;;;8.93;4.50;;;22.50;98.70;;;;;;4987567;28;20196;-76
2022/08/03 03:40:07;;;;;;;7.28;4.03;;;22.50;98.80;;;;;;4978120;28;20198;-76
2022/08/03 03:42:34;;;;;;;8.85;4.40;;;22.50;99.00;;;;;;4954033;28;20194;-76
2022/08/03 03:45:08;;;;;;;9.68;4.18;;;22.40;99.00;;;;;;4971197;28;20549;-76
2022/08/03 03:47:35;;;;;;;5.90;3.95;;;22.40;99.20;;;;;;4964096;28;20547;-76
2022/08/03 03:50:04;;;;;;;6.40;4.20;;;22.40;99.30;;;;;;4955083;28;20187;-76
2022/08/03 03:52:32;;;;;;;6.07;4.40;;;22.40;99.40;;;;;;4969672;28;20213;-76
2022/08/03 03:55:01;;;;;;;4.85;4.28;;;22.40;99.50;;;;;;4970319;28;20198;-76
2022/08/03 03:57:28;;;;;;;5.90;3.90;;;22.50;99.60;;;;;;4964114;28;20199;-76
2022/08/03 03:59:54;;;;;;;6.13;3.90;;;22.50;99.60;;;;;;4970004;28;20720;-76
2022/08/03 04:02:20;;;;;;;4.15;3.75;;;22.50;99.60;;;;;;4951984;28;20208;-76
2022/08/03 04:13:47;;;;;;;5.82;4.35;;;22.50;99.90;;;;;;4970200;28;20816;-75
2022/08/03 04:16:21;;;;;;;14.85;4.43;;;22.50;99.90;;;;;;4953341;28;20205;-76
2022/08/03 04:19:00;;;;;;;5.97;3.85;;;22.50;99.90;;;;;;4970240;28;20198;-76
2022/08/03 04:21:30;;;;;;;4.75;4.18;;;22.50;99.90;;;;;;4960593;28;20665;-76
2022/08/03 04:24:03;;;;;;;5.78;4.38;;;22.50;99.90;;;;;;4971142;28;20198;-76
2022/08/03 04:26:38;;;;;;;6.07;4.00;;;22.50;99.90;;;;;;4954374;28;20214;-76
2022/08/03 04:29:06;;;;;;;6.22;4.05;;;22.50;99.90;;;;;;4968679;28;20190;-76
2022/08/03 04:31:35;;;;;;;5.53;3.75;;;22.50;99.90;;;;;;4968467;28;20190;-76
2022/08/03 04:34:03;;;;;;;7.72;4.22;;;22.60;99.90;;;;;;4971511;28;20689;-76
2022/08/03 04:36:36;;;;;;;5.43;4.22;;;22.70;99.90;;;;;;4970527;28;20236;-76
2022/08/03 04:39:15;;;;;;;6.03;4.05;;;22.70;99.90;;;;;;4971294;28;20252;-76
2022/08/03 04:41:45;;;;;;;11.93;3.80;;;22.80;99.90;;;;;;4969350;28;20520;-76
2022/08/03 04:44:14;;;;;;;5.03;4.03;;;22.90;99.90;;;;;;4950904;28;20246;-76
2022/08/03 04:46:43;;;;;;;4.72;4.05;;;23.00;99.90;;;;;;4958190;28;20265;-76
2022/08/03 04:49:10;;;;;;;7.13;4.07;;;23.00;99.90;;;;;;4953317;28;20217;-76
2022/08/03 04:51:39;;;;;;;5.60;3.95;;;23.10;99.90;;;;;;4956165;28;20181;-76
2022/08/03 04:54:06;;;;;;;7.25;4.22;;;23.20;99.90;;;;;;4968711;28;20317;-76
2022/08/03 04:56:33;;;;;;;7.53;4.10;;;23.20;99.90;;;;;;4968357;28;20198;-76
2022/08/03 04:59:00;;;;;;;10.13;4.30;;;23.30;99.90;;;;;;4961962;28;20194;-76
2022/08/03 05:01:26;;;;;;;5.78;4.38;;;23.30;99.90;;;;;;4965871;28;20213;-76
2022/08/03 05:03:52;;;;;;;5.47;3.80;;;23.40;99.90;;;;;;4969260;28;20186;-76
2022/08/03 05:06:19;;;;;;;6.13;4.30;;;23.50;99.90;;;;;;4955043;28;20218;-76
2022/08/03 05:08:45;;;;;;;4.40;4.00;;;23.50;99.90;;;;;;4968811;28;20186;-76
2022/08/03 05:11:11;;;;;;;9.90;4.57;;;23.60;99.90;;;;;;4970241;28;20193;-76
2022/08/03 05:13:37;;;;;;;5.60;4.20;;;23.60;99.90;;;;;;4965029;28;20948;-76
2022/08/03 05:16:04;;;;;;;5.97;4.25;;;23.70;99.90;;;;;;4968994;28;20197;-76
2022/08/03 05:18:31;;;;;;;6.57;4.40;;;23.70;99.90;;;;;;4935289;29;20197;-76
2022/08/03 05:20:58;;;;;;;5.93;3.92;;;23.80;99.90;;;;;;4972900;28;20194;-76
2022/08/03 05:23:24;;;;;;;7.55;4.65;;;23.90;99.90;;;;;;4969505;28;20194;-76
2022/08/03 05:25:50;;;;;;;8.70;4.45;;;24.00;99.90;;;;;;4969658;28;20914;-76
2022/08/03 05:28:16;;;;;;;7.70;4.65;;;24.00;99.90;;;;;;4969642;28;20209;-76
2022/08/03 05:30:46;;;;;;;8.82;4.30;;;24.00;99.90;;;;;;4967474;28;20241;-76
2022/08/03 05:33:12;;;;;;;5.22;3.70;;;24.10;99.90;;;;;;4961611;28;20708;-76
2022/08/03 05:35:39;;;;;;;5.93;4.30;;;24.20;99.90;;;;;;4968480;28;20272;-76
2022/08/03 05:38:07;;;;;;;6.72;3.92;;;24.20;99.90;;;;;;4967316;28;20194;-76
2022/08/03 05:40:34;;;;;;;5.10;3.95;;;24.30;99.90;;;;;;4958890;28;20269;-76
2022/08/03 05:43:01;;;;;;;5.47;3.58;;;24.30;99.90;;;;;;4970127;28;20182;-76
2022/08/03 05:45:27;;;;;;;6.65;3.60;;;24.40;99.90;;;;;;4958244;28;20673;-76
2022/08/03 05:47:54;;;;;;;6.47;3.60;;;24.50;99.90;;;;;;4968471;28;20197;-76
2022/08/03 05:50:20;;;;;;;7.07;3.90;;;24.50;99.90;;;;;;4971052;28;20190;-76
2022/08/03 05:52:47;;;;;;;14.52;3.47;;;24.50;99.90;;;;;;4958119;28;20222;-76
2022/08/03 05:55:15;;;;;;;5.60;3.55;;;24.60;99.90;;;;;;4966387;28;20300;-76
2022/08/03 05:57:42;;;;;;;4.72;3.45;;;24.70;99.90;;;;;;4971504;28;20279;-76
2022/08/03 06:00:10;;;;;;;6.57;3.60;;;24.80;99.90;;;;;;4957122;28;20182;-76
2022/08/03 06:02:38;;;;;;;7.60;3.65;;;24.90;99.60;;;;;;4968471;28;20232;-76
2022/08/03 06:05:05;;;;;;;7.25;3.40;;;25.00;98.80;;;;;;4960410;28;20210;-76
2022/08/03 06:07:31;;;;;;;6.55;3.70;;;25.10;98.90;;;;;;4968540;28;20186;-76
2022/08/03 06:09:59;;;;;;;6.30;4.00;;;25.20;98.20;;;;;;4962996;28;20191;-76
2022/08/03 06:12:25;;;;;;;6.95;3.10;;;25.20;98.10;;;;;;4952806;28;20220;-76
2022/08/03 06:14:52;;;;;;;6.32;3.60;;;25.30;98.10;;;;;;4963852;28;20190;-76
2022/08/03 06:17:18;;;;;;;4.30;3.20;;;25.30;97.70;;;;;;4951446;28;20202;-76
2022/08/03 06:19:44;;;;;;;7.00;3.78;;;25.40;98.10;;;;;;4950400;28;20260;-75
2022/08/03 06:22:11;;;;;;;4.28;3.30;;;25.50;96.80;;;;;;4968580;28;20198;-76
2022/08/03 06:24:37;;;;;;;5.95;3.58;;;25.50;96.90;;;;;;4936753;28;20207;-76
2022/08/03 06:27:04;;;;;;;9.23;3.78;;;25.60;97.40;;;;;;4951116;28;20646;-76
2022/08/03 06:29:30;;;;;;;5.40;4.13;;;25.60;96.90;;;;;;4950836;28;20197;-76
2022/08/03 06:31:56;;;;;;;5.43;3.53;;;25.70;97.20;;;;;;4971487;28;20688;-76
2022/08/03 06:34:23;;;;;;;7.00;4.07;;;25.80;97.20;;;;;;4970112;28;20186;-76
2022/08/03 06:36:50;;;;;;;6.15;4.00;;;25.90;97.20;;;;;;4951635;28;20225;-76
2022/08/03 06:39:17;;;;;;;6.82;4.15;;;26.00;97.20;;;;;;4966782;28;20665;-76
2022/08/03 06:41:44;;;;;;;5.75;3.92;;;26.10;97.20;;;;;;4964415;28;20189;-76
2022/08/03 06:44:10;;;;;;;7.60;3.50;;;26.20;97.20;;;;;;4968326;28;20214;-76
2022/08/03 06:46:36;;;;;;;6.07;3.70;;;26.30;97.70;;;;;;4957013;28;20197;-76
2022/08/03 06:49:03;;;;;;;7.75;4.15;;;26.40;97.40;;;;;;4967894;28;20186;-76
2022/08/03 06:51:29;;;;;;;6.40;4.15;;;26.40;97.90;;;;;;4949767;28;20268;-76
2022/08/03 06:53:56;;;;;;;5.53;3.90;;;26.50;97.60;;;;;;4950024;28;20197;-76
2022/08/03 06:56:22;;;;;;;9.48;4.47;;;26.60;98.70;;;;;;4968629;28;20194;-76
2022/08/03 06:58:49;;;;;;;7.15;4.60;;;26.70;99.40;;;;;;4963120;28;20728;-76
2022/08/03 07:01:15;;;;;;;10.38;4.60;;;26.80;99.90;;;;;;4963473;28;20194;-76
2022/08/03 07:03:41;;;;;;;11.13;5.25;;;26.90;99.90;;;;;;4971270;28;20362;-76
2022/08/03 07:06:13;;;;;;;8.13;5.00;;;27.00;99.90;;;;;;4956463;28;20298;-76
2022/08/03 07:08:41;;;;;;;10.13;5.93;;;27.20;99.90;;;;;;4971098;28;20741;-76
2022/08/03 07:11:08;;;;;;;12.80;6.38;;;27.30;99.90;;;;;;4954891;28;20641;-76
2022/08/03 07:13:40;;;;;;;12.50;7.45;;;27.40;99.90;;;;;;4971664;28;20241;-76
2022/08/03 07:16:06;;;;;;;10.70;6.63;;;27.50;99.90;;;;;;4953649;28;20358;-76
2022/08/03 07:18:32;;;;;;;13.40;6.78;;;27.60;99.90;;;;;;4968057;28;20905;-76
2022/08/03 07:20:59;;;;;;;9.82;6.30;;;27.70;99.90;;;;;;4990278;28;20197;-76
2022/08/03 07:23:26;;;;;;;14.55;7.07;;;27.80;99.90;;;;;;4972058;28;20198;-76
2022/08/03 07:25:52;;;;;;;10.30;5.97;;;27.80;99.90;;;;;;4966274;28;20222;-76
2022/08/03 07:28:20;;;;;;;15.48;6.38;;;27.80;99.90;;;;;;4968625;28;20194;-76
2022/08/03 07:30:46;;;;;;;10.75;6.43;;;27.90;99.90;;;;;;4967166;28;20651;-76
2022/08/03 07:33:15;;;;;;;12.43;7.07;;;27.90;99.90;;;;;;4953532;28;20193;-76
2022/08/03 07:35:42;;;;;;;10.05;6.80;;;27.90;99.90;;;;;;4957316;28;20225;-76
2022/08/03 07:38:08;;;;;;;10.65;6.53;;;28.00;99.90;;;;;;4955877;28;20205;-76
2022/08/03 07:40:34;;;;;;;8.98;6.65;;;28.20;99.90;;;;;;4979942;28;20528;-76
2022/08/03 07:43:02;;;;;;;9.82;6.35;;;28.20;99.90;;;;;;4969731;28;20195;-76
2022/08/03 07:45:30;;;;;;;15.02;6.70;;;28.20;99.90;;;;;;4956373;28;20293;-75
2022/08/03 07:47:57;;;;;;;9.23;6.63;;;28.30;99.90;;;;;;4972399;28;20623;-76
2022/08/03 07:50:24;;;;;;;10.27;6.45;;;28.40;99.90;;;;;;4968036;28;20685;-76
2022/08/03 07:52:54;;;;;;;9.15;6.63;;;28.40;99.90;;;;;;4966638;28;20194;-76
2022/08/03 07:55:25;;;;;;;11.35;6.65;;;28.50;99.90;;;;;;4950031;28;20670;-76
2022/08/03 07:58:08;;;;;;;8.70;6.65;;;28.50;99.90;;;;;;4965965;28;20214;-76
2022/08/03 08:00:35;;;;;;;12.32;6.68;;;28.60;99.90;;;;;;4952622;28;20198;-76
2022/08/03 08:03:03;;;;;;;14.38;6.88;;;28.60;99.90;;;;;;4932642;28;20290;-76
2022/08/03 08:05:31;;;;;;;17.45;7.57;;;28.70;99.90;;;;;;4941846;28;20218;-76
2022/08/03 08:07:59;;;;;;;16.80;6.93;;;28.70;99.90;;;;;;4934219;28;20297;-76
2022/08/03 08:10:26;;;;;;;10.48;6.30;;;28.80;99.90;;;;;;4982340;28;20182;-76
2022/08/03 08:12:53;;;;;;;15.05;6.35;;;28.80;99.90;;;;;;4969875;28;20919;-76
2022/08/03 08:15:20;;;;;;;12.80;6.88;;;28.90;99.90;;;;;;4967045;28;20701;-76
2022/08/03 08:17:53;;;;;;;12.85;6.50;;;29.00;99.90;;;;;;4965920;28;20200;-75
2022/08/03 08:20:24;;;;;;;9.38;6.60;;;29.10;99.90;;;;;;4969093;28;20247;-76
2022/08/03 08:22:56;;;;;;;12.80;6.38;;;29.10;99.90;;;;;;4964074;28;20320;-76
2022/08/03 08:25:23;;;;;;;11.38;6.50;;;29.20;99.90;;;;;;4962341;28;20268;-76
2022/08/03 08:27:49;;;;;;;8.80;6.57;;;29.20;99.90;;;;;;4967587;28;20285;-76
2022/08/03 08:30:20;;;;;;;8.43;6.10;;;29.40;99.90;;;;;;4966575;28;20189;-76
2022/08/03 08:32:50;;;;;;;9.50;6.20;;;29.40;99.90;;;;;;4966115;28;20281;-76
2022/08/03 08:35:17;;;;;;;9.48;6.00;;;29.50;99.90;;;;;;4966234;28;20613;-76
2022/08/03 08:37:45;;;;;;;10.20;6.32;;;29.50;99.90;;;;;;4982395;28;22318;-76
2022/08/03 08:40:12;;;;;;;11.45;6.20;;;29.70;99.90;;;;;;4968200;28;20185;-76
2022/08/03 08:42:43;;;;;;;8.25;7.03;;;29.70;99.90;;;;;;4954552;28;20293;-76
2022/08/03 08:45:10;;;;;;;10.57;6.72;;;29.80;99.90;;;;;;4959840;28;20222;-76
2022/08/03 08:47:43;;;;;;;14.68;6.70;;;29.90;99.90;;;;;;4957867;28;20197;-76
2022/08/03 08:50:10;;;;;;;10.35;6.43;;;30.00;99.90;;;;;;4966260;28;20237;-76
2022/08/03 08:52:40;;;;;;;15.02;7.13;;;30.10;99.90;;;;;;4965001;28;20190;-76
2022/08/03 08:55:09;;;;;;;10.68;6.90;;;30.20;99.90;;;;;;4968348;28;20197;-75
2022/08/03 08:57:51;;;;;;;15.38;6.85;;;30.30;99.90;;;;;;4965341;28;20274;-76
2022/08/03 09:00:20;;;;;;;11.13;6.50;;;30.40;99.90;;;;;;4967202;28;20194;-76
2022/08/03 09:02:49;;;;;;;13.55;6.57;;;30.50;99.90;;;;;;4967974;28;20190;-76
2022/08/03 09:05:19;;;;;;;15.38;7.18;;;30.60;99.90;;;;;;4965811;28;20285;-76
2022/08/03 09:07:47;;;;;;;14.90;6.70;;;30.70;99.90;;;;;;4967383;28;20201;-76
2022/08/03 09:10:20;;;;;;;15.63;7.38;;;30.80;99.90;;;;;;4967385;28;20186;-76
2022/08/03 09:12:50;;;;;;;12.45;6.55;;;30.90;99.90;;;;;;4961546;28;20189;-76
2022/08/03 09:15:32;;;;;;;12.30;6.82;;;31.00;99.90;;;;;;4965865;28;20190;-76
2022/08/03 09:18:01;;;;;;;13.45;6.90;;;31.00;99.90;;;;;;4963856;28;20202;-76
2022/08/03 09:20:32;;;;;;;10.07;7.10;;;31.20;99.90;;;;;;4977832;28;20197;-75
2022/08/03 09:23:09;;;;;;;11.27;7.13;;;31.30;99.90;;;;;;4965796;28;20209;-76
2022/08/03 09:25:38;;;;;;;11.30;7.13;;;31.30;99.90;;;;;;4968708;28;20224;-76
2022/08/03 09:28:16;;;;;;;14.20;7.15;;;31.40;99.90;;;;;;4966535;28;20281;-75
2022/08/03 09:30:58;;;;;;;10.60;6.93;;;31.50;99.90;;;;;;4964830;28;20194;-76
2022/08/03 09:33:24;;;;;;;13.40;7.32;;;31.50;99.90;;;;;;4950797;28;20194;-76
2022/08/03 09:35:51;;;;;;;12.95;7.57;;;31.50;99.90;;;;;;4967766;28;20213;-76
2022/08/03 09:38:27;;;;;;;11.35;7.22;;;31.60;99.90;;;;;;4967761;28;20212;-75
2022/08/03 09:40:56;;;;;;;11.77;7.68;;;31.50;99.90;;;;;;4967098;28;20277;-76
2022/08/03 09:43:24;;;;;;;13.98;7.95;;;31.50;99.90;;;;;;4967629;28;20861;-76
2022/08/03 09:46:02;;;;;;;12.10;7.82;;;31.60;99.90;;;;;;4961569;28;20211;-76
2022/08/03 09:48:32;;;;;;;15.32;8.32;;;31.70;99.90;;;;;;4956118;28;20517;-76
2022/08/03 09:51:02;;;;;;;14.85;8.50;;;31.90;99.90;;;;;;4954106;28;20182;-75
2022/08/03 09:53:28;;;;;;;16.52;8.57;;;32.00;99.90;;;;;;4963027;28;20289;-75
2022/08/03 09:55:58;;;;;;;12.95;8.27;;;31.80;99.90;;;;;;4977988;28;20198;-76
2022/08/03 09:58:28;;;;;;;12.80;8.70;;;31.90;99.90;;;;;;4962544;28;20257;-76
2022/08/03 10:01:04;;;;;;;21.10;8.52;;;32.10;99.90;;;;;;4973563;28;20201;-76
2022/08/03 10:03:37;;;;;;;19.80;9.07;;;32.20;99.90;;;;;;4972459;28;20248;-76
2022/08/03 10:06:21;;;;;;;12.88;8.77;;;32.20;99.90;;;;;;4963554;28;20253;-76
2022/08/03 10:09:14;;;;;;;14.55;9.13;;;32.20;99.90;;;;;;4956575;28;20217;-76
2022/08/03 10:11:46;;;;;;;17.75;8.63;;;32.20;99.90;;;;;;4957643;28;20193;-76
2022/08/03 10:14:19;;;;;;;24.00;9.60;;;32.20;99.90;;;;;;4961308;28;20178;-77
2022/08/03 10:16:47;;;;;;;17.15;9.38;;;32.20;99.90;;;;;;4962384;28;20289;-76
2022/08/03 10:19:14;;;;;;;11.48;9.32;;;32.40;99.90;;;;;;4958977;28;20755;-75
2022/08/03 10:21:51;;;;;;;14.15;9.00;;;32.30;99.90;;;;;;4960315;28;20182;-75
2022/08/03 10:24:31;;;;;;;23.00;10.00;;;32.20;99.90;;;;;;4965470;28;20224;-75
2022/08/03 10:27:06;;;;;;;14.88;9.10;;;32.40;99.90;;;;;;4961723;28;20186;-75
2022/08/03 10:29:44;;;;;;;16.13;9.25;;;32.60;99.90;;;;;;4963828;28;20186;-75
2022/08/03 10:32:46;;;;;;;17.08;9.55;;;32.40;99.90;;;;;;4974404;28;20240;-75
2022/08/03 10:35:18;;;;;;;15.65;10.20;;;32.50;99.90;;;;;;4948066;28;20190;-76
2022/08/03 10:37:57;;;;;;;20.35;9.93;;;32.60;99.90;;;;;;4962380;28;20270;-75
2022/08/03 10:40:31;;;;;;;16.33;9.15;;;32.50;99.90;;;;;;4966028;28;20201;-75
2022/08/03 10:43:26;;;;;;;13.65;9.75;;;32.60;99.90;;;;;;4964033;28;20304;-75
2022/08/03 10:45:53;;;;;;;15.18;10.02;;;32.70;99.90;;;;;;4961803;28;20268;-76
2022/08/03 10:48:20;;;;;;;17.65;10.32;;;32.70;99.90;;;;;;4963912;28;20206;-75
2022/08/03 10:50:51;;;;;;;14.68;10.40;;;32.60;99.90;;;;;;4946756;28;20190;-75
2022/08/03 10:53:41;;;;;;;18.92;9.95;;;32.70;99.90;;;;;;4962071;28;20193;-75
2022/08/03 10:59:55;;;;;;;15.23;10.40;;;32.80;99.90;;;;;;4984254;28;20186;-75
2022/08/03 11:02:42;;;;;;;16.38;10.40;;;32.70;99.90;;;;;;4959289;28;20206;-75
2022/08/03 11:05:42;;;;;;;14.23;10.43;;;32.60;99.90;;;;;;4964568;28;20301;-76
2022/08/03 11:08:25;;;;;;;17.42;11.02;;;32.50;99.90;;;;;;4957491;28;20717;-75
2022/08/03 11:11:00;;;;;;;17.73;10.88;;;32.60;99.90;;;;;;4966566;28;20286;-75
2022/08/03 11:13:32;;;;;;;15.93;10.43;;;32.70;99.90;;;;;;4979923;28;20577;-75
2022/08/03 11:16:17;;;;;;;15.63;10.70;;;32.70;99.90;;;;;;4967999;28;20317;-75
2022/08/03 11:19:02;;;;;;;19.75;10.32;;;32.60;99.90;;;;;;4964571;28;20194;-75
2022/08/03 11:21:52;;;;;;;15.68;11.02;;;32.70;99.90;;;;;;4962004;28;20190;-76
2022/08/03 11:24:39;;;;;;;18.20;10.73;;;32.90;99.90;;;;;;4966830;28;20182;-76
2022/08/03 11:27:22;;;;;;;16.55;11.50;;;32.90;99.90;;;;;;4966722;28;20281;-76
2022/08/03 11:30:02;;;;;;;14.52;10.55;;;32.90;99.90;;;;;;4956783;28;20787;-76
2022/08/03 11:32:45;;;;;;;11.63;10.32;;;32.90;99.90;;;;;;4979186;28;20330;-76
2022/08/03 11:35:16;;;;;;;15.23;11.00;;;32.80;99.90;;;;;;4962777;28;20555;-76
2022/08/03 11:38:00;;;;;;;18.30;11.10;;;32.90;99.90;;;;;;4960549;28;20824;-76
2022/08/03 11:40:42;;;;;;;13.32;10.55;;;32.90;99.90;;;;;;4949609;28;20205;-76
2022/08/03 11:43:30;;;;;;;16.75;11.35;;;32.90;99.90;;;;;;4964775;28;20194;-76
2022/08/03 11:46:04;;;;;;;14.80;11.95;;;32.80;99.90;;;;;;4948488;28;20690;-76
2022/08/03 11:48:44;;;;;;;14.07;10.88;;;32.80;99.90;;;;;;4963477;28;20209;-76
2022/08/03 11:51:26;;;;;;;15.77;11.10;;;32.70;99.90;;;;;;4966632;28;20555;-76
2022/08/03 11:54:01;;;;;;;16.05;11.05;;;32.70;99.90;;;;;;4953907;28;20190;-76
2022/08/03 11:56:42;;;;;;;14.05;11.13;;;32.70;99.90;;;;;;4968487;28;20248;-76
2022/08/03 11:59:08;;;;;;;14.85;11.52;;;32.70;99.90;;;;;;4967092;28;20202;-76
2022/08/03 12:01:36;;;;;;;13.40;10.68;;;32.60;99.90;;;;;;4967126;28;20236;-76
2022/08/03 12:04:04;;;;;;;14.48;11.77;;;32.70;99.90;;;;;;4968597;28;20190;-76
2022/08/03 12:06:53;;;;;;;14.13;11.23;;;32.60;99.90;;;;;;4969684;28;20230;-76
2022/08/03 12:09:20;;;;;;;16.27;11.48;;;32.50;99.90;;;;;;4965791;28;20194;-76
2022/08/03 12:11:52;;;;;;;17.00;11.52;;;32.70;99.90;;;;;;4967168;28;20574;-76
2022/08/03 12:14:19;;;;;;;15.95;12.25;;;32.80;99.90;;;;;;4982363;28;20771;-76
2022/08/03 12:16:49;;;;;;;14.80;11.38;;;32.70;99.90;;;;;;4968069;28;20194;-76
2022/08/03 12:19:16;;;;;;;16.33;12.85;;;32.70;99.90;;;;;;4967090;28;20194;-76
2022/08/03 12:21:50;;;;;;;18.50;11.20;;;32.60;99.90;;;;;;4967961;28;20285;-76
2022/08/03 12:24:16;;;;;;;13.27;10.85;;;32.50;99.90;;;;;;4958427;28;20206;-76
2022/08/03 12:26:46;;;;;;;18.42;11.30;;;32.60;99.90;;;;;;4972655;28;20731;-76
2022/08/03 12:29:20;;;;;;;13.32;9.80;;;32.60;99.90;;;;;;4950176;28;20628;-76
2022/08/03 12:31:48;;;;;;;15.57;10.60;;;32.70;99.90;;;;;;4969622;28;20187;-76
2022/08/03 12:34:15;;;;;;;16.83;10.65;;;32.60;99.90;;;;;;4969479;28;20210;-76
2022/08/03 12:36:55;;;;;;;12.00;10.13;;;32.50;99.90;;;;;;4965053;28;20200;-76
2022/08/03 12:39:28;;;;;;;12.35;10.52;;;32.50;99.90;;;;;;4969166;28;20194;-76
2022/08/03 12:41:56;;;;;;;14.77;9.88;;;32.60;99.90;;;;;;4976405;28;20317;-76
2022/08/03 12:44:34;;;;;;;20.48;10.40;;;32.70;99.90;;;;;;4955686;28;20844;-76
2022/08/03 12:47:03;;;;;;;15.48;9.55;;;32.70;99.90;;;;;;4964508;28;20201;-76
2022/08/03 12:49:53;;;;;;;13.05;9.90;;;32.70;99.90;;;;;;4973479;28;20193;-76
2022/08/03 12:52:21;;;;;;;17.70;9.85;;;32.60;99.90;;;;;;4968311;28;20512;-76
2022/08/03 12:54:56;;;;;;;17.08;9.35;;;32.40;99.90;;;;;;4969314;28;20210;-76
2022/08/03 12:57:23;;;;;;;16.10;9.77;;;32.40;99.90;;;;;;4966991;28;20666;-76
2022/08/03 12:59:54;;;;;;;16.10;9.52;;;32.40;99.90;;;;;;4965734;28;20266;-76
2022/08/03 13:02:23;;;;;;;15.32;9.27;;;32.40;99.90;;;;;;4951228;28;20194;-76
2022/08/03 13:04:53;;;;;;;12.52;9.32;;;32.50;99.90;;;;;;4968761;28;20646;-76
2022/08/03 13:07:21;;;;;;;14.55;8.27;;;32.50;99.90;;;;;;4968604;28;20206;-76
2022/08/03 13:09:54;;;;;;;15.05;9.27;;;32.50;99.90;;;;;;4970579;28;20325;-76
2022/08/03 13:12:28;;;;;;;13.57;9.20;;;32.40;99.90;;;;;;4965756;28;20206;-76
2022/08/03 13:14:59;;;;;;;10.75;9.10;;;32.40;99.90;;;;;;4953077;28;20190;-76